sensor_id;sensor_type;location;lat;lon;timestamp;temperature;humidity
17202;DHT22;8717;53.588;10.176;2024-03-08T00:01:36;0.60;99.90
17202;DHT22;8717;53.588;10.176;2024-03-08T00:04:03;0.60;99.90
17202;DHT22;8717;53.588;10.176;2024-03-08T00:06:33;0.60;99.90
17202;DHT22;8717;53.588;10.176;2024-03-08T00:08:59;0.60;99.90
17202;DHT22;8717;53.588;10.176;2024-03-08T00:11:26;0.50;99.90
17202;DHT22;8717;53.588;10.176;2024-03-08T00:13:53;0.50;99.90
17202;DHT22;8717;53.588;10.176;2024-03-08T00:16:20;0.50;99.90
17202;DHT22;8717;53.588;10.176;2024-03-08T00:18:48;0.50;99.90
17202;DHT22;8717;53.588;10.176;2024-03-08T00:21:15;0.40;99.90
17202;DHT22;8717;53.588;10.176;2024-03-08T00:23:44;0.40;99.90
17202;DHT22;8717;53.588;10.176;2024-03-08T00:26:10;0.30;99.90
17202;DHT22;8717;53.588;10.176;2024-03-08T00:28:37;0.30;99.90
17202;DHT22;8717;53.588;10.176;2024-03-08T00:31:04;0.20;99.90
17202;DHT22;8717;53.588;10.176;2024-03-08T00:33:32;0.20;99.90
17202;DHT22;8717;53.588;10.176;2024-03-08T00:35:59;0.20;99.90
17202;DHT22;8717;53.588;10.176;2024-03-08T00:38:26;0.10;99.90
17202;DHT22;8717;53.588;10.176;2024-03-08T00:40:54;0.10;99.90
17202;DHT22;8717;53.588;10.176;2024-03-08T00:43:21;0.10;99.90
17202;DHT22;8717;53.588;10.176;2024-03-08T00:45:48;0.10;99.90
17202;DHT22;8717;53.588;10.176;2024-03-08T00:48:14;0.00;99.90
17202;DHT22;8717;53.588;10.176;2024-03-08T00:50:41;0.00;99.90
17202;DHT22;8717;53.588;10.176;2024-03-08T00:53:11;0.00;99.90
17202;DHT22;8717;53.588;10.176;2024-03-08T00:55:38;0.00;99.90
17202;DHT22;8717;53.588;10.176;2024-03-08T00:58:06;0.00;99.90
17202;DHT22;8717;53.588;10.176;2024-03-08T01:00:34;-0.10;99.90
17202;DHT22;8717;53.588;10.176;2024-03-08T01:03:04;-0.10;99.90
17202;DHT22;8717;53.588;10.176;2024-03-08T01:05:32;-0.10;99.90
17202;DHT22;8717;53.588;10.176;2024-03-08T01:07:59;-0.10;99.90
17202;DHT22;8717;53.588;10.176;2024-03-08T01:10:25;-0.10;99.90
17202;DHT22;8717;53.588;10.176;2024-03-08T01:12:52;-0.20;99.90
17202;DHT22;8717;53.588;10.176;2024-03-08T01:15:21;-0.20;99.90
17202;DHT22;8717;53.588;10.176;2024-03-08T01:17:48;-0.20;99.90
17202;DHT22;8717;53.588;10.176;2024-03-08T01:20:15;-0.20;99.90
17202;DHT22;8717;53.588;10.176;2024-03-08T01:22:43;-0.20;99.90
17202;DHT22;8717;53.588;10.176;2024-03-08T01:25:10;-0.20;99.90
17202;DHT22;8717;53.588;10.176;2024-03-08T01:27:36;-0.30;99.90
17202;DHT22;8717;53.588;10.176;2024-03-08T01:30:04;-0.30;99.90
17202;DHT22;8717;53.588;10.176;2024-03-08T01:32:32;-0.30;99.90
17202;DHT22;8717;53.588;10.176;2024-03-08T01:34:59;-0.30;99.90
17202;DHT22;8717;53.588;10.176;2024-03-08T01:37:26;-0.30;99.90
17202;DHT22;8717;53.588;10.176;2024-03-08T01:39:55;-0.30;99.90
17202;DHT22;8717;53.588;10.176;2024-03-08T01:42:21;-0.30;99.90
17202;DHT22;8717;53.588;10.176;2024-03-08T01:44:48;-0.30;99.90
17202;DHT22;8717;53.588;10.176;2024-03-08T01:47:15;-0.30;99.90
17202;DHT22;8717;53.588;10.176;2024-03-08T01:49:43;-0.30;99.90
17202;DHT22;8717;53.588;10.176;2024-03-08T01:52:10;-0.30;99.90
17202;DHT22;8717;53.588;10.176;2024-03-08T01:54:38;-0.30;99.90
17202;DHT22;8717;53.588;10.176;2024-03-08T01:57:06;-0.30;99.90
17202;DHT22;8717;53.588;10.176;2024-03-08T01:59:33;-0.40;99.90
17202;DHT22;8717;53.588;10.176;2024-03-08T02:02:01;-0.40;99.90
17202;DHT22;8717;53.588;10.176;2024-03-08T02:04:28;-0.40;99.90
17202;DHT22;8717;53.588;10.176;2024-03-08T02:06:58;-0.40;99.90
17202;DHT22;8717;53.588;10.176;2024-03-08T02:09:25;-0.40;99.90
17202;DHT22;8717;53.588;10.176;2024-03-08T02:11:52;-0.40;99.90
17202;DHT22;8717;53.588;10.176;2024-03-08T02:14:20;-0.40;99.90
17202;DHT22;8717;53.588;10.176;2024-03-08T02:16:47;-0.40;99.90
17202;DHT22;8717;53.588;10.176;2024-03-08T02:19:14;-0.40;99.90
17202;DHT22;8717;53.588;10.176;2024-03-08T02:21:43;-0.50;99.90
17202;DHT22;8717;53.588;10.176;2024-03-08T02:24:12;-0.50;99.90
17202;DHT22;8717;53.588;10.176;2024-03-08T02:26:39;-0.50;99.90
17202;DHT22;8717;53.588;10.176;2024-03-08T02:29:08;-0.50;99.90
17202;DHT22;8717;53.588;10.176;2024-03-08T02:31:35;-0.50;99.90
17202;DHT22;8717;53.588;10.176;2024-03-08T02:34:02;-0.50;99.90
17202;DHT22;8717;53.588;10.176;2024-03-08T02:36:30;-0.50;99.90
17202;DHT22;8717;53.588;10.176;2024-03-08T02:39:02;-0.50;99.90
17202;DHT22;8717;53.588;10.176;2024-03-08T02:41:30;-0.60;99.90
17202;DHT22;8717;53.588;10.176;2024-03-08T02:43:58;-0.60;99.90
17202;DHT22;8717;53.588;10.176;2024-03-08T02:46:25;-0.60;99.90
17202;DHT22;8717;53.588;10.176;2024-03-08T02:48:52;-0.60;99.90
17202;DHT22;8717;53.588;10.176;2024-03-08T02:51:19;-0.60;99.90
17202;DHT22;8717;53.588;10.176;2024-03-08T02:53:46;-0.70;99.90
17202;DHT22;8717;53.588;10.176;2024-03-08T02:56:16;-0.70;99.90
17202;DHT22;8717;53.588;10.176;2024-03-08T02:58:43;-0.70;99.90
17202;DHT22;8717;53.588;10.176;2024-03-08T03:01:14;-0.70;99.90
17202;DHT22;8717;53.588;10.176;2024-03-08T03:03:41;-0.70;99.90
17202;DHT22;8717;53.588;10.176;2024-03-08T03:06:08;-0.70;99.90
17202;DHT22;8717;53.588;10.176;2024-03-08T03:08:35;-0.80;99.90
17202;DHT22;8717;53.588;10.176;2024-03-08T03:11:02;-0.80;99.90
17202;DHT22;8717;53.588;10.176;2024-03-08T03:13:30;-0.80;99.90
17202;DHT22;8717;53.588;10.176;2024-03-08T03:15:57;-0.80;99.90
17202;DHT22;8717;53.588;10.176;2024-03-08T03:18:24;-0.80;99.90
17202;DHT22;8717;53.588;10.176;2024-03-08T03:20:52;-0.90;99.90
17202;DHT22;8717;53.588;10.176;2024-03-08T03:23:19;-0.90;99.90
17202;DHT22;8717;53.588;10.176;2024-03-08T03:25:46;-0.90;99.90
17202;DHT22;8717;53.588;10.176;2024-03-08T03:28:13;-0.90;99.90
17202;DHT22;8717;53.588;10.176;2024-03-08T03:30:44;-0.90;99.90
17202;DHT22;8717;53.588;10.176;2024-03-08T03:33:12;-0.90;99.90
17202;DHT22;8717;53.588;10.176;2024-03-08T03:35:40;-1.00;99.90
17202;DHT22;8717;53.588;10.176;2024-03-08T03:38:08;-1.00;99.90
17202;DHT22;8717;53.588;10.176;2024-03-08T03:40:35;-1.00;99.90
17202;DHT22;8717;53.588;10.176;2024-03-08T03:43:03;-1.00;99.90
17202;DHT22;8717;53.588;10.176;2024-03-08T03:45:30;-1.00;99.90
17202;DHT22;8717;53.588;10.176;2024-03-08T03:48:02;-1.00;99.90
17202;DHT22;8717;53.588;10.176;2024-03-08T03:50:29;-1.00;99.90
17202;DHT22;8717;53.588;10.176;2024-03-08T03:52:56;-1.10;99.90
17202;DHT22;8717;53.588;10.176;2024-03-08T03:55:23;-1.10;99.90
17202;DHT22;8717;53.588;10.176;2024-03-08T03:57:50;-1.10;99.90
17202;DHT22;8717;53.588;10.176;2024-03-08T04:00:18;-1.10;99.90
17202;DHT22;8717;53.588;10.176;2024-03-08T04:02:45;-1.10;99.90
17202;DHT22;8717;53.588;10.176;2024-03-08T04:05:13;-1.10;99.90
17202;DHT22;8717;53.588;10.176;2024-03-08T04:07:40;-1.20;99.90
17202;DHT22;8717;53.588;10.176;2024-03-08T04:10:09;-1.10;99.90
17202;DHT22;8717;53.588;10.176;2024-03-08T04:12:37;-1.20;99.90
17202;DHT22;8717;53.588;10.176;2024-03-08T04:15:05;-1.20;99.90
17202;DHT22;8717;53.588;10.176;2024-03-08T04:17:33;-1.20;99.90
17202;DHT22;8717;53.588;10.176;2024-03-08T04:20:01;-1.20;99.90
17202;DHT22;8717;53.588;10.176;2024-03-08T04:22:35;-1.20;99.90
17202;DHT22;8717;53.588;10.176;2024-03-08T04:25:02;-1.30;99.90
17202;DHT22;8717;53.588;10.176;2024-03-08T04:27:29;-1.30;99.90
17202;DHT22;8717;53.588;10.176;2024-03-08T04:29:58;-1.30;99.90
17202;DHT22;8717;53.588;10.176;2024-03-08T04:32:25;-1.30;99.90
17202;DHT22;8717;53.588;10.176;2024-03-08T04:34:53;-1.30;99.90
17202;DHT22;8717;53.588;10.176;2024-03-08T04:37:20;-1.30;99.90
17202;DHT22;8717;53.588;10.176;2024-03-08T04:39:49;-1.30;99.90
17202;DHT22;8717;53.588;10.176;2024-03-08T04:42:16;-1.30;99.90
17202;DHT22;8717;53.588;10.176;2024-03-08T04:44:43;-1.30;99.90
17202;DHT22;8717;53.588;10.176;2024-03-08T04:47:10;-1.30;99.90
17202;DHT22;8717;53.588;10.176;2024-03-08T04:49:37;-1.30;99.90
17202;DHT22;8717;53.588;10.176;2024-03-08T04:52:04;-1.30;99.90
17202;DHT22;8717;53.588;10.176;2024-03-08T04:54:32;-1.30;99.90
17202;DHT22;8717;53.588;10.176;2024-03-08T04:57:01;-1.30;99.90
17202;DHT22;8717;53.588;10.176;2024-03-08T04:59:28;-1.40;99.90
17202;DHT22;8717;53.588;10.176;2024-03-08T05:01:55;-1.30;99.90
17202;DHT22;8717;53.588;10.176;2024-03-08T05:04:22;-1.40;99.90
17202;DHT22;8717;53.588;10.176;2024-03-08T05:06:48;-1.40;99.90
17202;DHT22;8717;53.588;10.176;2024-03-08T05:09:15;-1.40;99.90
17202;DHT22;8717;53.588;10.176;2024-03-08T05:11:46;-1.40;99.90
17202;DHT22;8717;53.588;10.176;2024-03-08T05:14:14;-1.40;99.90
17202;DHT22;8717;53.588;10.176;2024-03-08T05:16:42;-1.40;99.90
17202;DHT22;8717;53.588;10.176;2024-03-08T05:19:09;-1.40;99.90
17202;DHT22;8717;53.588;10.176;2024-03-08T05:21:36;-1.40;99.90
17202;DHT22;8717;53.588;10.176;2024-03-08T05:24:03;-1.40;99.90
17202;DHT22;8717;53.588;10.176;2024-03-08T05:26:30;-1.40;99.90
17202;DHT22;8717;53.588;10.176;2024-03-08T05:28:58;-1.50;99.90
17202;DHT22;8717;53.588;10.176;2024-03-08T05:31:27;-1.50;99.90
17202;DHT22;8717;53.588;10.176;2024-03-08T05:33:54;-1.50;99.90
17202;DHT22;8717;53.588;10.176;2024-03-08T05:36:21;-1.40;99.90
17202;DHT22;8717;53.588;10.176;2024-03-08T05:38:49;-1.50;99.90
17202;DHT22;8717;53.588;10.176;2024-03-08T05:41:16;-1.50;99.90
17202;DHT22;8717;53.588;10.176;2024-03-08T05:43:44;-1.50;99.90
17202;DHT22;8717;53.588;10.176;2024-03-08T05:46:11;-1.50;99.90
17202;DHT22;8717;53.588;10.176;2024-03-08T05:48:39;-1.50;99.90
17202;DHT22;8717;53.588;10.176;2024-03-08T05:51:06;-1.50;99.90
17202;DHT22;8717;53.588;10.176;2024-03-08T05:53:32;-1.50;99.90
17202;DHT22;8717;53.588;10.176;2024-03-08T05:55:59;-1.50;99.90
17202;DHT22;8717;53.588;10.176;2024-03-08T05:58:27;-1.40;99.90
17202;DHT22;8717;53.588;10.176;2024-03-08T06:00:57;-1.40;99.90
17202;DHT22;8717;53.588;10.176;2024-03-08T06:03:23;-1.50;99.90
17202;DHT22;8717;53.588;10.176;2024-03-08T06:05:52;-1.50;99.90
17202;DHT22;8717;53.588;10.176;2024-03-08T06:08:18;-1.50;99.90
17202;DHT22;8717;53.588;10.176;2024-03-08T06:10:45;-1.50;99.90
17202;DHT22;8717;53.588;10.176;2024-03-08T06:13:15;-1.50;99.90
17202;DHT22;8717;53.588;10.176;2024-03-08T06:15:41;-1.50;99.90
17202;DHT22;8717;53.588;10.176;2024-03-08T06:18:08;-1.40;99.90
17202;DHT22;8717;53.588;10.176;2024-03-08T06:20:37;-1.40;99.90
17202;DHT22;8717;53.588;10.176;2024-03-08T06:23:05;-1.40;99.90
17202;DHT22;8717;53.588;10.176;2024-03-08T06:25:32;-1.40;99.90
17202;DHT22;8717;53.588;10.176;2024-03-08T06:28:00;-1.40;99.90
17202;DHT22;8717;53.588;10.176;2024-03-08T06:30:27;-1.40;99.90
17202;DHT22;8717;53.588;10.176;2024-03-08T06:32:54;-1.30;99.90
17202;DHT22;8717;53.588;10.176;2024-03-08T06:35:21;-1.30;99.90
17202;DHT22;8717;53.588;10.176;2024-03-08T06:37:48;-1.30;99.90
17202;DHT22;8717;53.588;10.176;2024-03-08T06:40:17;-1.20;99.90
17202;DHT22;8717;53.588;10.176;2024-03-08T06:42:44;-1.10;99.90
17202;DHT22;8717;53.588;10.176;2024-03-08T06:45:12;-1.10;99.90
17202;DHT22;8717;53.588;10.176;2024-03-08T06:47:44;-1.00;99.90
17202;DHT22;8717;53.588;10.176;2024-03-08T06:50:12;-1.00;99.90
17202;DHT22;8717;53.588;10.176;2024-03-08T06:52:41;-1.00;99.90
17202;DHT22;8717;53.588;10.176;2024-03-08T06:55:08;-0.90;99.90
17202;DHT22;8717;53.588;10.176;2024-03-08T06:57:39;-0.90;99.90
17202;DHT22;8717;53.588;10.176;2024-03-08T07:00:07;-0.90;99.90
17202;DHT22;8717;53.588;10.176;2024-03-08T07:02:35;-0.80;99.90
17202;DHT22;8717;53.588;10.176;2024-03-08T07:05:02;-0.80;99.90
17202;DHT22;8717;53.588;10.176;2024-03-08T07:07:29;-0.70;99.90
17202;DHT22;8717;53.588;10.176;2024-03-08T07:09:57;-0.70;99.90
17202;DHT22;8717;53.588;10.176;2024-03-08T07:12:24;-0.70;99.90
17202;DHT22;8717;53.588;10.176;2024-03-08T07:14:53;-0.60;99.90
17202;DHT22;8717;53.588;10.176;2024-03-08T07:17:19;-0.60;99.90
17202;DHT22;8717;53.588;10.176;2024-03-08T07:19:46;-0.50;99.90
17202;DHT22;8717;53.588;10.176;2024-03-08T07:22:13;-0.40;99.90
17202;DHT22;8717;53.588;10.176;2024-03-08T07:24:40;-0.40;99.90
17202;DHT22;8717;53.588;10.176;2024-03-08T07:27:21;-0.30;99.90
17202;DHT22;8717;53.588;10.176;2024-03-08T07:29:48;-0.20;99.90
17202;DHT22;8717;53.588;10.176;2024-03-08T07:32:16;-0.20;99.90
17202;DHT22;8717;53.588;10.176;2024-03-08T07:34:47;-0.10;99.90
17202;DHT22;8717;53.588;10.176;2024-03-08T07:37:14;0.00;99.90
17202;DHT22;8717;53.588;10.176;2024-03-08T07:39:41;0.10;99.90
17202;DHT22;8717;53.588;10.176;2024-03-08T07:42:09;0.20;99.90
17202;DHT22;8717;53.588;10.176;2024-03-08T07:44:37;0.40;99.90
17202;DHT22;8717;53.588;10.176;2024-03-08T07:47:04;0.60;99.90
17202;DHT22;8717;53.588;10.176;2024-03-08T07:49:34;0.80;99.90
17202;DHT22;8717;53.588;10.176;2024-03-08T07:52:01;1.00;99.90
17202;DHT22;8717;53.588;10.176;2024-03-08T07:54:29;1.20;99.90
17202;DHT22;8717;53.588;10.176;2024-03-08T07:56:56;1.40;99.90
17202;DHT22;8717;53.588;10.176;2024-03-08T07:59:23;1.60;99.90
17202;DHT22;8717;53.588;10.176;2024-03-08T08:01:50;1.70;99.90
17202;DHT22;8717;53.588;10.176;2024-03-08T08:04:16;1.90;99.90
17202;DHT22;8717;53.588;10.176;2024-03-08T08:06:46;2.10;99.90
17202;DHT22;8717;53.588;10.176;2024-03-08T08:09:12;2.20;99.90
17202;DHT22;8717;53.588;10.176;2024-03-08T08:11:40;2.30;99.90
17202;DHT22;8717;53.588;10.176;2024-03-08T08:14:08;2.40;99.90
17202;DHT22;8717;53.588;10.176;2024-03-08T08:16:35;2.50;99.90
17202;DHT22;8717;53.588;10.176;2024-03-08T08:19:03;2.50;99.90
17202;DHT22;8717;53.588;10.176;2024-03-08T08:21:33;2.60;99.90
17202;DHT22;8717;53.588;10.176;2024-03-08T08:24:01;2.70;99.90
17202;DHT22;8717;53.588;10.176;2024-03-08T08:26:29;2.80;99.90
17202;DHT22;8717;53.588;10.176;2024-03-08T08:28:56;2.90;99.90
17202;DHT22;8717;53.588;10.176;2024-03-08T08:31:22;3.00;99.90
17202;DHT22;8717;53.588;10.176;2024-03-08T08:33:49;3.10;99.90
17202;DHT22;8717;53.588;10.176;2024-03-08T08:36:19;3.30;99.90
17202;DHT22;8717;53.588;10.176;2024-03-08T08:38:46;3.40;99.90
17202;DHT22;8717;53.588;10.176;2024-03-08T08:41:14;3.60;99.90
17202;DHT22;8717;53.588;10.176;2024-03-08T08:43:42;3.80;99.90
17202;DHT22;8717;53.588;10.176;2024-03-08T08:46:10;4.00;99.90
17202;DHT22;8717;53.588;10.176;2024-03-08T08:48:38;4.30;99.90
17202;DHT22;8717;53.588;10.176;2024-03-08T08:51:06;4.60;99.90
17202;DHT22;8717;53.588;10.176;2024-03-08T08:53:37;5.00;99.90
17202;DHT22;8717;53.588;10.176;2024-03-08T08:56:06;5.40;99.90
17202;DHT22;8717;53.588;10.176;2024-03-08T08:58:34;5.80;99.90
17202;DHT22;8717;53.588;10.176;2024-03-08T09:01:01;6.20;99.90
17202;DHT22;8717;53.588;10.176;2024-03-08T09:03:28;6.50;99.90
17202;DHT22;8717;53.588;10.176;2024-03-08T09:05:55;6.80;99.90
17202;DHT22;8717;53.588;10.176;2024-03-08T09:08:22;7.20;99.90
17202;DHT22;8717;53.588;10.176;2024-03-08T09:10:50;7.50;99.90
17202;DHT22;8717;53.588;10.176;2024-03-08T09:13:17;7.80;99.90
17202;DHT22;8717;53.588;10.176;2024-03-08T09:15:45;8.10;99.90
17202;DHT22;8717;53.588;10.176;2024-03-08T09:18:12;8.20;99.90
17202;DHT22;8717;53.588;10.176;2024-03-08T09:20:38;8.40;99.90
17202;DHT22;8717;53.588;10.176;2024-03-08T09:23:06;8.60;99.90
17202;DHT22;8717;53.588;10.176;2024-03-08T09:25:33;8.70;99.90
17202;DHT22;8717;53.588;10.176;2024-03-08T09:28:00;8.80;99.90
17202;DHT22;8717;53.588;10.176;2024-03-08T09:30:27;9.00;99.90
17202;DHT22;8717;53.588;10.176;2024-03-08T09:32:56;9.10;99.90
17202;DHT22;8717;53.588;10.176;2024-03-08T09:35:23;9.30;99.90
17202;DHT22;8717;53.588;10.176;2024-03-08T09:37:49;9.30;99.90
17202;DHT22;8717;53.588;10.176;2024-03-08T09:40:17;9.40;99.90
17202;DHT22;8717;53.588;10.176;2024-03-08T09:42:45;9.50;99.90
17202;DHT22;8717;53.588;10.176;2024-03-08T09:45:12;9.60;99.90
17202;DHT22;8717;53.588;10.176;2024-03-08T09:47:41;9.70;99.90
17202;DHT22;8717;53.588;10.176;2024-03-08T09:50:10;9.80;99.90
17202;DHT22;8717;53.588;10.176;2024-03-08T09:52:38;10.00;99.90
17202;DHT22;8717;53.588;10.176;2024-03-08T09:55:06;10.10;99.90
17202;DHT22;8717;53.588;10.176;2024-03-08T09:57:33;10.20;99.90
17202;DHT22;8717;53.588;10.176;2024-03-08T10:00:03;10.30;99.90
17202;DHT22;8717;53.588;10.176;2024-03-08T10:02:37;10.50;99.90
17202;DHT22;8717;53.588;10.176;2024-03-08T10:05:04;10.60;99.90
17202;DHT22;8717;53.588;10.176;2024-03-08T10:07:32;10.70;99.90
17202;DHT22;8717;53.588;10.176;2024-03-08T10:09:59;10.90;99.90
17202;DHT22;8717;53.588;10.176;2024-03-08T10:12:26;11.10;99.90
17202;DHT22;8717;53.588;10.176;2024-03-08T10:14:55;11.20;99.90
17202;DHT22;8717;53.588;10.176;2024-03-08T10:17:21;11.40;99.70
17202;DHT22;8717;53.588;10.176;2024-03-08T10:19:49;11.40;99.60
17202;DHT22;8717;53.588;10.176;2024-03-08T10:22:17;11.40;99.30
17202;DHT22;8717;53.588;10.176;2024-03-08T10:24:46;11.50;99.10
17202;DHT22;8717;53.588;10.176;2024-03-08T10:27:13;11.50;98.10
17202;DHT22;8717;53.588;10.176;2024-03-08T10:29:41;11.60;98.10
17202;DHT22;8717;53.588;10.176;2024-03-08T10:32:10;11.60;98.20
17202;DHT22;8717;53.588;10.176;2024-03-08T10:34:37;11.60;97.00
17202;DHT22;8717;53.588;10.176;2024-03-08T10:37:04;11.60;97.30
17202;DHT22;8717;53.588;10.176;2024-03-08T10:39:34;11.70;96.60
17202;DHT22;8717;53.588;10.176;2024-03-08T10:42:04;11.70;96.50
17202;DHT22;8717;53.588;10.176;2024-03-08T10:44:43;11.70;95.80
17202;DHT22;8717;53.588;10.176;2024-03-08T10:47:18;11.70;95.60
17202;DHT22;8717;53.588;10.176;2024-03-08T10:49:51;11.80;95.20
17202;DHT22;8717;53.588;10.176;2024-03-08T10:52:20;11.80;95.40
17202;DHT22;8717;53.588;10.176;2024-03-08T10:54:48;11.80;96.10
17202;DHT22;8717;53.588;10.176;2024-03-08T10:57:18;11.80;95.50
17202;DHT22;8717;53.588;10.176;2024-03-08T10:59:46;11.80;95.00
17202;DHT22;8717;53.588;10.176;2024-03-08T11:02:16;11.80;94.80
17202;DHT22;8717;53.588;10.176;2024-03-08T11:04:46;11.80;95.10
17202;DHT22;8717;53.588;10.176;2024-03-08T11:07:14;11.80;94.60
17202;DHT22;8717;53.588;10.176;2024-03-08T11:09:46;11.80;94.90
17202;DHT22;8717;53.588;10.176;2024-03-08T11:12:22;11.80;95.10
17202;DHT22;8717;53.588;10.176;2024-03-08T11:14:55;11.90;94.40
17202;DHT22;8717;53.588;10.176;2024-03-08T11:17:40;12.00;95.30
17202;DHT22;8717;53.588;10.176;2024-03-08T11:20:12;12.10;93.70
17202;DHT22;8717;53.588;10.176;2024-03-08T11:22:47;12.10;94.20
17202;DHT22;8717;53.588;10.176;2024-03-08T11:25:30;12.20;93.90
17202;DHT22;8717;53.588;10.176;2024-03-08T11:28:09;12.20;93.20
17202;DHT22;8717;53.588;10.176;2024-03-08T11:30:45;12.20;92.90
17202;DHT22;8717;53.588;10.176;2024-03-08T11:33:14;12.20;93.70
17202;DHT22;8717;53.588;10.176;2024-03-08T11:35:42;12.20;93.50
17202;DHT22;8717;53.588;10.176;2024-03-08T11:38:12;12.20;93.20
17202;DHT22;8717;53.588;10.176;2024-03-08T11:40:39;12.20;93.10
17202;DHT22;8717;53.588;10.176;2024-03-08T11:43:08;12.20;93.10
17202;DHT22;8717;53.588;10.176;2024-03-08T11:45:36;12.10;92.50
17202;DHT22;8717;53.588;10.176;2024-03-08T11:48:04;12.10;93.20
17202;DHT22;8717;53.588;10.176;2024-03-08T11:50:31;12.10;92.90
17202;DHT22;8717;53.588;10.176;2024-03-08T11:53:03;12.10;92.30
17202;DHT22;8717;53.588;10.176;2024-03-08T11:55:30;12.10;92.10
17202;DHT22;8717;53.588;10.176;2024-03-08T11:58:02;12.10;91.60
17202;DHT22;8717;53.588;10.176;2024-03-08T12:00:30;12.10;91.80
17202;DHT22;8717;53.588;10.176;2024-03-08T12:03:07;12.10;91.80
17202;DHT22;8717;53.588;10.176;2024-03-08T12:05:36;12.10;91.80
17202;DHT22;8717;53.588;10.176;2024-03-08T12:08:04;12.10;92.00
17202;DHT22;8717;53.588;10.176;2024-03-08T12:10:32;12.10;91.90
17202;DHT22;8717;53.588;10.176;2024-03-08T12:13:00;12.10;92.20
17202;DHT22;8717;53.588;10.176;2024-03-08T12:15:30;12.10;91.80
17202;DHT22;8717;53.588;10.176;2024-03-08T12:17:59;12.10;91.80
17202;DHT22;8717;53.588;10.176;2024-03-08T12:20:26;12.20;91.90
17202;DHT22;8717;53.588;10.176;2024-03-08T12:22:55;12.10;91.50
17202;DHT22;8717;53.588;10.176;2024-03-08T12:25:25;12.10;91.20
17202;DHT22;8717;53.588;10.176;2024-03-08T12:27:55;12.00;90.90
17202;DHT22;8717;53.588;10.176;2024-03-08T12:30:23;11.90;91.00
17202;DHT22;8717;53.588;10.176;2024-03-08T12:32:56;11.90;90.40
17202;DHT22;8717;53.588;10.176;2024-03-08T12:35:27;11.90;90.60
17202;DHT22;8717;53.588;10.176;2024-03-08T12:37:55;11.70;91.40
17202;DHT22;8717;53.588;10.176;2024-03-08T12:40:26;11.70;91.00
17202;DHT22;8717;53.588;10.176;2024-03-08T12:42:54;11.70;90.90
17202;DHT22;8717;53.588;10.176;2024-03-08T12:45:21;11.60;91.00
17202;DHT22;8717;53.588;10.176;2024-03-08T12:47:50;11.70;90.40
17202;DHT22;8717;53.588;10.176;2024-03-08T12:50:18;11.60;90.80
17202;DHT22;8717;53.588;10.176;2024-03-08T12:52:45;11.60;90.30
17202;DHT22;8717;53.588;10.176;2024-03-08T12:55:12;11.50;89.20
17202;DHT22;8717;53.588;10.176;2024-03-08T12:57:39;11.50;89.20
17202;DHT22;8717;53.588;10.176;2024-03-08T13:00:07;11.40;90.00
17202;DHT22;8717;53.588;10.176;2024-03-08T13:02:39;11.30;90.30
17202;DHT22;8717;53.588;10.176;2024-03-08T13:05:06;11.30;90.40
17202;DHT22;8717;53.588;10.176;2024-03-08T13:07:37;11.30;90.50
17202;DHT22;8717;53.588;10.176;2024-03-08T13:10:04;11.30;90.30
17202;DHT22;8717;53.588;10.176;2024-03-08T13:12:32;11.30;90.30
17202;DHT22;8717;53.588;10.176;2024-03-08T13:15:00;11.30;90.40
17202;DHT22;8717;53.588;10.176;2024-03-08T13:17:27;11.30;89.60
17202;DHT22;8717;53.588;10.176;2024-03-08T13:19:54;11.30;88.20
17202;DHT22;8717;53.588;10.176;2024-03-08T13:22:23;11.30;88.80
17202;DHT22;8717;53.588;10.176;2024-03-08T13:24:51;11.30;88.90
17202;DHT22;8717;53.588;10.176;2024-03-08T13:27:18;11.30;88.60
17202;DHT22;8717;53.588;10.176;2024-03-08T13:29:46;11.40;88.50
17202;DHT22;8717;53.588;10.176;2024-03-08T13:32:15;11.30;87.20
17202;DHT22;8717;53.588;10.176;2024-03-08T13:34:42;11.30;86.60
17202;DHT22;8717;53.588;10.176;2024-03-08T13:37:09;11.30;86.30
17202;DHT22;8717;53.588;10.176;2024-03-08T13:39:37;11.20;86.70
17202;DHT22;8717;53.588;10.176;2024-03-08T13:42:10;11.20;86.70
17202;DHT22;8717;53.588;10.176;2024-03-08T13:44:39;11.20;87.50
17202;DHT22;8717;53.588;10.176;2024-03-08T13:47:09;11.10;87.70
17202;DHT22;8717;53.588;10.176;2024-03-08T13:49:37;11.10;87.90
17202;DHT22;8717;53.588;10.176;2024-03-08T13:52:05;11.20;88.40
17202;DHT22;8717;53.588;10.176;2024-03-08T13:54:33;11.20;87.00
17202;DHT22;8717;53.588;10.176;2024-03-08T13:57:01;11.20;84.80
17202;DHT22;8717;53.588;10.176;2024-03-08T13:59:30;11.20;85.00
17202;DHT22;8717;53.588;10.176;2024-03-08T14:01:58;11.10;84.70
17202;DHT22;8717;53.588;10.176;2024-03-08T14:04:27;11.10;83.10
17202;DHT22;8717;53.588;10.176;2024-03-08T14:06:53;11.00;84.10
17202;DHT22;8717;53.588;10.176;2024-03-08T14:09:23;10.90;84.80
17202;DHT22;8717;53.588;10.176;2024-03-08T14:11:50;10.90;86.30
17202;DHT22;8717;53.588;10.176;2024-03-08T14:14:20;10.90;87.60
17202;DHT22;8717;53.588;10.176;2024-03-08T14:16:50;10.80;88.90
17202;DHT22;8717;53.588;10.176;2024-03-08T14:19:20;10.80;87.60
17202;DHT22;8717;53.588;10.176;2024-03-08T14:21:47;10.70;88.80
17202;DHT22;8717;53.588;10.176;2024-03-08T14:24:15;10.60;89.20
17202;DHT22;8717;53.588;10.176;2024-03-08T14:26:42;10.50;90.10
17202;DHT22;8717;53.588;10.176;2024-03-08T14:29:08;10.60;90.40
17202;DHT22;8717;53.588;10.176;2024-03-08T14:31:36;10.50;90.30
17202;DHT22;8717;53.588;10.176;2024-03-08T14:34:04;10.50;90.60
17202;DHT22;8717;53.588;10.176;2024-03-08T14:36:33;10.50;90.40
17202;DHT22;8717;53.588;10.176;2024-03-08T14:39:00;10.60;90.30
17202;DHT22;8717;53.588;10.176;2024-03-08T14:41:27;10.50;90.70
17202;DHT22;8717;53.588;10.176;2024-03-08T14:43:54;10.50;90.40
17202;DHT22;8717;53.588;10.176;2024-03-08T14:46:22;10.50;90.30
17202;DHT22;8717;53.588;10.176;2024-03-08T14:48:49;10.50;90.30
17202;DHT22;8717;53.588;10.176;2024-03-08T14:51:19;10.40;89.80
17202;DHT22;8717;53.588;10.176;2024-03-08T14:53:48;10.40;89.90
17202;DHT22;8717;53.588;10.176;2024-03-08T14:56:15;10.40;90.00
17202;DHT22;8717;53.588;10.176;2024-03-08T14:58:42;10.30;90.00
17202;DHT22;8717;53.588;10.176;2024-03-08T15:01:09;10.20;90.10
17202;DHT22;8717;53.588;10.176;2024-03-08T15:03:39;10.20;90.00
17202;DHT22;8717;53.588;10.176;2024-03-08T15:06:06;10.10;89.60
17202;DHT22;8717;53.588;10.176;2024-03-08T15:08:37;10.00;90.00
17202;DHT22;8717;53.588;10.176;2024-03-08T15:11:05;10.00;89.40
17202;DHT22;8717;53.588;10.176;2024-03-08T15:13:32;9.90;89.70
17202;DHT22;8717;53.588;10.176;2024-03-08T15:16:10;9.90;90.00
17202;DHT22;8717;53.588;10.176;2024-03-08T15:18:42;9.70;89.00
17202;DHT22;8717;53.588;10.176;2024-03-08T15:21:12;9.70;90.20
17202;DHT22;8717;53.588;10.176;2024-03-08T15:23:45;9.60;89.30
17202;DHT22;8717;53.588;10.176;2024-03-08T15:26:15;9.60;89.40
17202;DHT22;8717;53.588;10.176;2024-03-08T15:28:42;9.50;88.70
17202;DHT22;8717;53.588;10.176;2024-03-08T15:31:10;9.40;89.70
17202;DHT22;8717;53.588;10.176;2024-03-08T15:33:39;9.40;90.00
17202;DHT22;8717;53.588;10.176;2024-03-08T15:36:09;9.30;89.90
17202;DHT22;8717;53.588;10.176;2024-03-08T15:38:37;9.20;90.20
17202;DHT22;8717;53.588;10.176;2024-03-08T15:41:05;9.20;90.50